Detall de PIREP

Printer-friendly versionPDF version

[2015/04/13 16:52:00]
Flight IATA:CT3206
Pilot Number:016
Company ICAO:CAT
Aircraft Type:B763/F
PAX:188
Departing Airport: LEPA
Destination Airport: LZIB
Alternate Airport:LEPA
Online: VATSIM
Route:MEROS UN853 TURIL UT24 STP UM985 BAMPA Q110 KUNET
Flight Level:F350
No Slew and time accel
No pause
Crash detect
Detect pilot in Cockpit between each 30 and 45 minutes
16:52 Zero fuel Weight: 242483 Lbs, Fuel Weight: 61351 Lbs
16:52 VATSIM:LEPA 132330Z 00000KT CAVOK 11/09 Q1029 NOSIG
16:52 VATSIM:LZIB 132330Z 31005KT 280V340 CAVOK 08/M03 Q1028
16:53 Parking Brakes off
17:04 Take-off
17:04 Take off Weight: 301568 Lbs
17:04 Wind: 058º @ 000 Knots Heading: 238º
17:04 POS N39º 33´ 19´´ E002º 43´ 41´´
17:04 Gear Up: 171 Knots
17:04 Flaps:2 at 171 Knots
17:05 Flaps:1 at 218 Knots
17:06 Flaps:0 at 238 Knots
17:14 TOC
17:14 Fuel Weight: 53246 Lb
17:19 Wind:032º@002 Knots Heading: 008º Ground Speed: 458 Knots Altitude 35469 ft
17:34 Wind:003º@017 Knots Heading: 032º Ground Speed: 446 Knots Altitude 35406 ft
17:49 Wind:315º@007 Knots Heading: 052º Ground Speed: 458 Knots Altitude 35380 ft
18:04 Wind:040º@016 Knots Heading: 058º Ground Speed: 448 Knots Altitude 35410 ft
18:19 Wind:351º@041 Knots Heading: 050º Ground Speed: 448 Knots Altitude 35406 ft
18:34 Wind:245º@006 Knots Heading: 073º Ground Speed: 476 Knots Altitude 35357 ft
18:40 TOD
18:40 Fuel Weight: 37396 Lb
18:49 Wind:317º@017 Knots Heading: 045º Ground Speed: 325 Knots Altitude 18930 ft
18:56 Flaps:1 at 238 Knots
19:01 Flaps:2 at 189 Knots
19:01 Gear Down: 187 Knots
19:01 Flaps:3 at 182 Knots
19:01 Flaps:4 at 165 Knots
19:01 Flaps:5 at 148 Knots
19:02 Flaps:6 at 143 Knots
19:04 Wind:298º@006 Knots Heading: 321º Ground Speed: 141 Knots Altitude 1778 ft
19:06 TouchDown:Rate -98 ft/min Speed: 140 Knots
19:06 VATSIM:LZIB 140200Z 30008KT CAVOK 06/M03 Q1028
19:06 Land
19:06 Wind:298º@006 Knots
19:06 Heading: 313º
19:06 Flight Duration: 02:02
19:06 Landing Weight: 276618 Lbs
19:06 POS N48º 10´ 11´´ E017º 12´ 46´´
19:10 Parking brakes on
19:10 Block to Block Duration: 02:17
19:10 Final Fuel: 33531 Lbls
19:10 Spent Fuel: 27819 Lbls
19:10 Flight Length: 839 NM
19:10 TOD Land Length: 126 NM

Exportar CSV

Powered by Drupal - Modified by Danger4k